createdAt,value
2023-02-01T00:02:35.728Z,3.05
2023-02-01T00:07:38.300Z,2.17
2023-02-01T00:12:39.656Z,2.70
2023-02-01T00:17:41.056Z,2.38
2023-02-01T00:22:42.388Z,2.20
2023-02-01T00:27:43.763Z,3.63
2023-02-01T00:32:45.208Z,2.88
2023-02-01T00:37:46.516Z,3.28
2023-02-01T00:42:47.913Z,3.05
2023-02-01T00:47:49.272Z,3.30
2023-02-01T00:52:50.696Z,3.05
2023-02-01T00:57:52.084Z,3.10
2023-02-01T01:02:53.496Z,3.35
2023-02-01T01:07:54.885Z,2.95
2023-02-01T01:12:56.201Z,2.67
2023-02-01T01:17:57.526Z,2.50
2023-02-01T01:22:58.860Z,3.05
2023-02-01T01:28:00.231Z,3.00
2023-02-01T01:33:01.855Z,3.08
2023-02-01T01:38:03.923Z,3.97
2023-02-01T01:43:14.876Z,2.97
2023-02-01T01:48:18.758Z,4.13
2023-02-01T01:53:27.715Z,3.33
2023-02-01T01:58:33.108Z,5.40
2023-02-01T02:03:41.463Z,4.18
2023-02-01T02:08:42.842Z,3.67
2023-02-01T02:13:49.128Z,3.95
2023-02-01T02:19:20.149Z,4.30
2023-02-01T02:24:52.407Z,4.70
2023-02-01T02:30:15.266Z,4.55
2023-02-01T02:35:48.073Z,5.05
2023-02-01T02:40:59.667Z,5.38
2023-02-01T02:46:40.355Z,5.53
2023-02-01T02:52:27.021Z,4.43
2023-02-01T02:57:53.859Z,4.32
2023-02-01T03:03:14.506Z,4.68
2023-02-01T03:08:21.420Z,4.43
2023-02-01T03:13:32.187Z,5.50
2023-02-01T03:18:36.457Z,4.88
2023-02-01T03:23:39.539Z,5.05
2023-02-01T03:28:48.997Z,5.80
2023-02-01T03:33:50.934Z,5.72
2023-02-01T03:39:04.085Z,4.90
2023-02-01T03:44:18.465Z,5.00
2023-02-01T03:49:27.347Z,4.35
2023-02-01T03:54:30.033Z,5.05
2023-02-01T03:59:31.440Z,3.60
2023-02-01T04:04:34.097Z,4.15
2023-02-01T04:09:35.429Z,3.47
2023-02-01T04:14:36.765Z,2.95
2023-02-01T04:19:38.180Z,4.47
2023-02-01T04:24:39.532Z,4.07
2023-02-01T04:29:41.890Z,4.20
2023-02-01T04:34:43.605Z,4.20
2023-02-01T04:39:45.052Z,4.90
2023-02-01T04:44:46.442Z,5.38
2023-02-01T04:49:47.823Z,4.53
2023-02-01T04:54:49.275Z,4.32
2023-02-01T04:59:50.637Z,4.07
2023-02-01T05:04:52.096Z,3.92
2023-02-01T05:09:53.474Z,4.32
2023-02-01T05:14:54.844Z,4.25
2023-02-01T05:19:56.204Z,3.60
2023-02-01T05:24:57.515Z,4.20
2023-02-01T05:29:58.848Z,4.00
2023-02-01T05:35:00.334Z,3.28
2023-02-01T05:40:01.752Z,3.95
2023-02-01T05:45:03.608Z,3.58
2023-02-01T05:50:06.024Z,3.53
2023-02-01T05:55:08.547Z,3.30
2023-02-01T06:00:10.454Z,2.90
2023-02-01T06:05:11.983Z,2.60
2023-02-01T06:10:13.862Z,2.83
2023-02-01T06:15:19.255Z,2.63
2023-02-01T06:20:20.959Z,3.67
2023-02-01T06:25:22.526Z,2.00
2023-02-01T06:30:24.152Z,2.72
2023-02-01T06:35:27.031Z,1.88
2023-02-01T06:40:28.435Z,2.30
2023-02-01T06:45:29.904Z,1.58
2023-02-01T06:50:31.255Z,1.70
2023-02-01T06:55:32.579Z,1.83
2023-02-01T07:00:33.952Z,1.50
2023-02-01T07:05:35.297Z,3.00
2023-02-01T07:10:38.228Z,2.30
2023-02-01T07:15:39.657Z,2.33
2023-02-01T07:20:41.601Z,2.03
2023-02-01T07:25:42.947Z,1.52
2023-02-01T07:30:44.375Z,1.95
2023-02-01T07:35:46.571Z,2.05
2023-02-01T07:40:48.246Z,1.58
2023-02-01T07:45:54.127Z,2.47
2023-02-01T07:51:04.667Z,1.27
2023-02-01T07:56:15.646Z,1.70
2023-02-01T08:01:21.530Z,1.63
2023-02-01T08:06:24.155Z,1.50
2023-02-01T08:11:26.649Z,1.00
2023-02-01T08:16:28.117Z,1.83
2023-02-01T08:21:49.599Z,1.98
2023-02-01T08:26:50.940Z,1.30
2023-02-01T08:31:52.785Z,0.93
2023-02-01T08:36:58.569Z,1.50
2023-02-01T08:42:18.385Z,1.42
2023-02-01T08:47:19.740Z,1.27
2023-02-01T08:52:21.492Z,0.80
2023-02-01T08:57:22.997Z,1.17
2023-02-01T09:02:24.486Z,0.80
2023-02-01T09:07:25.828Z,1.05
2023-02-01T09:12:29.228Z,1.58
2023-02-01T09:17:31.023Z,1.30
2023-02-01T09:22:32.594Z,2.67
2023-02-01T09:27:34.409Z,1.30
2023-02-01T09:32:36.675Z,0.98
2023-02-01T09:37:38.495Z,1.60
2023-02-01T09:43:16.098Z,1.05
2023-02-01T09:48:23.071Z,1.60
2023-02-01T09:53:31.730Z,1.87
2023-02-01T09:58:43.509Z,2.13
2023-02-01T10:03:45.129Z,2.10
2023-02-01T10:09:00.874Z,0.90
2023-02-01T10:14:15.388Z,2.15
2023-02-01T10:19:36.280Z,1.15
2023-02-01T10:24:43.662Z,1.15
2023-02-01T10:29:49.971Z,1.40
2023-02-01T10:34:58.683Z,0.60
2023-02-01T10:40:16.348Z,1.58
2023-02-01T10:45:21.143Z,0.93
2023-02-01T10:50:37.200Z,0.90
2023-02-01T10:55:50.526Z,1.02
2023-02-01T11:00:58.815Z,1.20
2023-02-01T11:06:01.573Z,1.20
2023-02-01T11:11:06.884Z,1.42
2023-02-01T11:16:13.498Z,0.90
2023-02-01T11:21:15.325Z,2.53
2023-02-01T11:26:24.627Z,1.10
2023-02-01T11:31:28.249Z,1.02
2023-02-01T11:36:34.069Z,1.23
2023-02-01T11:41:44.460Z,1.45
2023-02-01T11:46:45.944Z,0.98
2023-02-01T11:52:19.338Z,1.10
2023-02-01T11:57:54.533Z,1.30
2023-02-01T12:03:16.303Z,1.20
2023-02-01T12:08:48.349Z,0.75
2023-02-01T12:14:27.200Z,1.38
2023-02-01T12:19:57.000Z,1.27
2023-02-01T12:25:34.154Z,0.68
2023-02-01T12:31:07.906Z,0.90
2023-02-01T12:36:26.924Z,1.55
2023-02-01T12:41:46.866Z,1.05
2023-02-01T12:46:54.368Z,2.67
2023-02-01T12:52:01.665Z,1.17
2023-02-01T12:57:16.147Z,0.47
2023-02-01T13:02:29.015Z,0.80
2023-02-01T13:07:40.383Z,1.02
2023-02-01T13:12:50.006Z,1.63
2023-02-01T13:17:54.561Z,0.60
2023-02-01T13:23:02.240Z,0.80
2023-02-01T13:28:24.999Z,0.90
2023-02-01T13:33:54.012Z,1.13
2023-02-01T13:39:35.050Z,0.82
2023-02-01T13:44:51.530Z,0.43
2023-02-01T13:49:55.677Z,0.73
2023-02-01T13:55:26.197Z,0.70
2023-02-01T14:00:37.290Z,0.50
2023-02-01T14:05:38.753Z,0.85
2023-02-01T14:10:46.126Z,0.75
2023-02-01T14:16:05.691Z,0.77
2023-02-01T14:21:23.488Z,1.85
2023-02-01T14:26:44.949Z,0.98
2023-02-01T14:32:13.660Z,0.55
2023-02-01T14:37:18.069Z,1.05
2023-02-01T14:42:26.798Z,0.45
2023-02-01T14:47:30.351Z,0.85
2023-02-01T14:52:46.871Z,0.77
2023-02-01T14:57:51.593Z,0.50
2023-02-01T15:02:54.636Z,0.50
2023-02-01T15:07:58.389Z,0.63
2023-02-01T15:13:01.189Z,1.65
2023-02-01T15:18:02.631Z,0.88
2023-02-01T15:23:06.332Z,0.82
2023-02-01T15:28:15.525Z,0.32
2023-02-01T15:33:19.141Z,0.68
2023-02-01T15:38:24.436Z,0.93
2023-02-01T15:43:28.087Z,0.40
2023-02-01T15:48:37.109Z,0.50
2023-02-01T15:53:38.603Z,1.00
2023-02-01T15:58:43.644Z,1.17
2023-02-01T16:03:48.076Z,0.68
2023-02-01T16:08:56.044Z,0.57
2023-02-01T16:14:01.385Z,0.68
2023-02-01T16:19:03.029Z,0.60
2023-02-01T16:24:05.384Z,1.15
2023-02-01T16:29:09.278Z,0.50
2023-02-01T16:34:16.415Z,0.50
2023-02-01T16:39:18.275Z,0.50
2023-02-01T16:44:19.719Z,0.88
2023-02-01T16:49:24.132Z,1.63
2023-02-01T16:54:25.530Z,0.98
2023-02-01T16:59:26.899Z,0.40
2023-02-01T17:04:28.395Z,0.30
2023-02-01T17:09:30.362Z,0.63
2023-02-01T17:14:41.469Z,0.75
2023-02-01T17:19:43.806Z,0.47
2023-02-01T17:24:48.769Z,0.35
2023-02-01T17:29:51.099Z,0.75
2023-02-01T17:34:52.557Z,1.25
2023-02-01T17:39:57.505Z,0.98
2023-02-01T17:45:02.469Z,0.88
2023-02-01T17:50:04.405Z,0.80
2023-02-01T17:55:19.080Z,1.40
2023-02-01T18:00:21.829Z,0.73
2023-02-01T18:05:44.646Z,0.85
2023-02-01T18:10:49.083Z,0.50
2023-02-01T18:15:50.453Z,1.10
2023-02-01T18:20:52.099Z,1.88
2023-02-01T18:25:53.497Z,0.40
2023-02-01T18:30:54.903Z,0.45
2023-02-01T18:35:56.277Z,0.50
2023-02-01T18:40:58.193Z,0.20
2023-02-01T18:45:59.613Z,0.55
2023-02-01T18:51:00.973Z,0.55
2023-02-01T18:56:02.925Z,0.88
2023-02-01T19:01:16.094Z,0.40
2023-02-01T19:06:18.169Z,0.70
2023-02-01T19:11:19.529Z,0.40
2023-02-01T19:16:21.192Z,0.30
2023-02-01T19:21:22.605Z,0.43
2023-02-01T19:26:23.994Z,0.43
2023-02-01T19:31:25.480Z,0.50
2023-02-01T19:36:27.406Z,0.52
2023-02-01T19:41:28.715Z,0.88
2023-02-01T19:46:30.316Z,0.82
2023-02-01T19:51:31.697Z,0.98
2023-02-01T19:56:33.171Z,0.25
2023-02-01T20:01:33.967Z,0.57
2023-02-01T20:06:38.774Z,0.77
2023-02-01T20:11:40.088Z,0.77
2023-02-01T20:16:42.410Z,1.15
2023-02-01T20:21:44.833Z,0.82
2023-02-01T20:26:48.991Z,0.95
2023-02-01T20:31:50.424Z,0.30
2023-02-01T20:36:51.753Z,0.60
2023-02-01T20:41:53.106Z,0.50
2023-02-01T20:46:54.427Z,0.40
2023-02-01T20:51:57.730Z,1.05
2023-02-01T20:56:59.035Z,0.40
2023-02-01T21:02:01.356Z,0.50
2023-02-01T21:07:03.385Z,1.05
2023-02-01T21:12:05.105Z,0.50
2023-02-01T21:17:06.472Z,0.70
2023-02-01T21:22:08.155Z,0.75
2023-02-01T21:27:10.034Z,0.60
2023-02-01T21:32:11.412Z,0.98
2023-02-01T21:37:12.765Z,1.17
2023-02-01T21:42:14.143Z,0.50
2023-02-01T21:47:18.102Z,0.85
2023-02-01T21:52:19.640Z,1.33
2023-02-01T21:57:20.991Z,1.38
2023-02-01T22:02:22.391Z,0.70
2023-02-01T22:07:23.847Z,1.45
2023-02-01T22:12:25.183Z,0.80
2023-02-01T22:17:27.205Z,1.33
2023-02-01T22:22:29.896Z,0.75
2023-02-01T22:28:30.176Z,1.00
2023-02-01T22:32:54.102Z,0.90
2023-02-01T22:37:55.455Z,1.13
2023-02-01T22:42:56.763Z,0.80
2023-02-01T22:47:58.059Z,1.00
2023-02-01T22:52:59.358Z,0.40
2023-02-01T22:58:01.087Z,0.52
2023-02-01T23:03:02.454Z,0.60
2023-02-01T23:08:03.846Z,1.08
2023-02-01T23:13:05.177Z,0.57
2023-02-01T23:18:06.556Z,0.50
2023-02-01T23:23:07.859Z,0.63
2023-02-01T23:28:09.176Z,0.57
2023-02-01T23:33:10.478Z,1.05
2023-02-01T23:38:11.788Z,0.60
2023-02-01T23:43:31.512Z,0.60
2023-02-01T23:48:32.894Z,1.33
2023-02-01T23:53:34.763Z,0.82
2023-02-01T23:58:36.064Z,0.70
